Time;durP1;ratioP1;P1;durP2;ratioP2;P2;SDS_P1;SDS_P2;PMS_P1;PMS_P2;Temp;Humidity;BMP_temperature;BMP_pressure;BME280_temperature;BME280_humidity;BME280_pressure;Samples;Min_cycle;Max_cycle;Signal;HPM_P1;HPM_P2
2022/11/05 00:10:19;;;;;;;;;;;;;;;;;;5016348;28;19917;-91
2022/11/05 00:18:13;;;;;;;;;;;;;;;;;;5020634;28;19957;-91
2022/11/05 00:20:38;;;;;;;;;;;;;;;;;;5008810;28;19944;-92
2022/11/05 00:25:50;;;;;;;;;;;;;;;;;;5013753;28;19913;-90
2022/11/05 00:28:16;;;;;;;;;;;;;;;;;;4996506;28;19913;-92
2022/11/05 00:30:42;;;;;;;;;;;;;;;;;;5000434;28;19966;-91
2022/11/05 00:33:08;;;;;;;;;;;;;;;;;;5017722;28;19913;-91
2022/11/05 00:35:33;;;;;;;;;;;;;;;;;;4984573;28;19913;-93
2022/11/05 00:37:58;;;;;;;;;;;;;;;;;;5018177;28;19914;-92
2022/11/05 00:40:24;;;;;;;;;;;;;;;;;;5000580;28;19920;-92
2022/11/05 00:45:34;;;;;;;;;;;;;;;;;;5013579;28;19920;-91
2022/11/05 00:50:44;;;;;;;;;;;;;;;;;;4966481;28;19914;-92
2022/11/05 00:53:09;;;;;;;;;;;;;;;;;;4966398;28;19964;-92
2022/11/05 00:55:36;;;;;;;;;;;;;;;;;;4950692;28;19937;-91
2022/11/05 00:58:02;;;;;;;;;;;;;;;;;;4966876;28;20281;-91
2022/11/05 01:00:27;;;;;;;;;;;;;;;;;;4980967;28;19913;-91
2022/11/05 01:02:53;;;;;;;;;;;;;;;;;;4951012;28;19922;-92
2022/11/05 01:05:18;;;;;;;;;;;;;;;;;;4945342;28;19917;-90
2022/11/05 01:07:44;;;;;;;;;;;;;;;;;;4943850;28;19998;-89
2022/11/05 01:10:09;;;;;;;;;;;;;;;;;;4961144;28;19976;-91
2022/11/05 01:12:35;;;;;;;;;;;;;;;;;;4978717;28;20329;-91
2022/11/05 01:15:00;;;;;;;;;;;;;;;;;;4977795;28;19909;-93
2022/11/05 01:17:26;;;;;;;;;;;;;;;;;;4993786;28;20267;-92
2022/11/05 01:19:51;;;;;;;;;;;;;;;;;;4995426;28;19968;-91
2022/11/05 01:22:17;;;;;;;;;;;;;;;;;;4994880;28;19914;-89
2022/11/05 01:24:42;;;;;;;;;;;;;;;;;;4979029;28;19925;-93
2022/11/05 01:27:07;;;;;;;;;;;;;;;;;;4994075;28;19957;-90
2022/11/05 01:29:36;;;;;;;;;;;;;;;;;;4946342;28;19914;-92
2022/11/05 01:32:01;;;;;;;;;;;;;;;;;;4978129;28;19913;-92
2022/11/05 01:34:27;;;;;;;;;;;;;;;;;;4978199;28;19985;-92
2022/11/05 01:36:52;;;;;;;;;;;;;;;;;;4995611;28;20343;-92
2022/11/05 01:39:18;;;;;;;;;;;;;;;;;;4995575;28;19929;-92
2022/11/05 01:41:43;;;;;;;;;;;;;;;;;;4996758;28;19918;-92
2022/11/05 01:44:09;;;;;;;;;;;;;;;;;;4981290;28;19941;-91
2022/11/05 01:46:34;;;;;;;;;;;;;;;;;;4977847;28;19921;-92
2022/11/05 01:48:59;;;;;;;;;;;;;;;;;;4993678;28;19913;-92
2022/11/05 01:51:28;;;;;;;;;;;;;;;;;;4960495;28;19920;-90
2022/11/05 01:53:53;;;;;;;;;;;;;;;;;;4999120;28;19913;-92
2022/11/05 01:56:19;;;;;;;;;;;;;;;;;;4971348;28;19924;-91
2022/11/05 01:58:44;;;;;;;;;;;;;;;;;;4989015;28;19937;-91
2022/11/05 02:01:09;;;;;;;;;;;;;;;;;;4972346;28;19948;-91
2022/11/05 02:03:35;;;;;;;;;;;;;;;;;;4987508;28;19918;-91
2022/11/05 02:06:00;;;;;;;;;;;;;;;;;;5001124;28;19921;-91
2022/11/05 02:08:26;;;;;;;;;;;;;;;;;;5019845;28;19913;-92
2022/11/05 02:10:51;;;;;;;;;;;;;;;;;;5000391;28;19914;-91
2022/11/05 02:13:17;;;;;;;;;;;;;;;;;;4979320;28;19921;-91
2022/11/05 02:15:42;;;;;;;;;;;;;;;;;;4977607;28;19918;-91
2022/11/05 02:18:07;;;;;;;;;;;;;;;;;;4994099;28;19921;-90
2022/11/05 02:20:33;;;;;;;;;;;;;;;;;;4980922;28;19914;-91
2022/11/05 02:22:58;;;;;;;;;;;;;;;;;;4980209;28;19917;-91
2022/11/05 02:25:24;;;;;;;;;;;;;;;;;;4998820;28;19910;-91
2022/11/05 02:27:49;;;;;;;;;;;;;;;;;;4997193;28;19921;-91
2022/11/05 02:30:15;;;;;;;;;;;;;;;;;;4998479;28;19953;-90
2022/11/05 02:32:41;;;;;;;;;;;;;;;;;;4981594;28;20338;-91
2022/11/05 02:35:06;;;;;;;;;;;;;;;;;;4980173;28;19977;-91
2022/11/05 02:37:31;;;;;;;;;;;;;;;;;;4995763;28;19921;-92
2022/11/05 02:39:57;;;;;;;;;;;;;;;;;;5012539;28;20013;-91
2022/11/05 02:42:22;;;;;;;;;;;;;;;;;;4981044;28;19913;-91
2022/11/05 02:44:48;;;;;;;;;;;;;;;;;;4996428;28;20008;-91
2022/11/05 02:47:13;;;;;;;;;;;;;;;;;;4964064;28;19922;-91
2022/11/05 02:49:39;;;;;;;;;;;;;;;;;;4979884;28;19910;-91
2022/11/05 02:52:04;;;;;;;;;;;;;;;;;;4963938;28;19921;-90
2022/11/05 02:54:29;;;;;;;;;;;;;;;;;;4995930;28;19914;-91
2022/11/05 02:56:55;;;;;;;;;;;;;;;;;;4996736;28;19972;-91
2022/11/05 02:59:20;;;;;;;;;;;;;;;;;;4996793;28;19979;-91
2022/11/05 03:01:46;;;;;;;;;;;;;;;;;;4980861;28;19918;-92
2022/11/05 03:04:11;;;;;;;;;;;;;;;;;;4997274;28;19918;-91
2022/11/05 03:06:38;;;;;;;;;;;;;;;;;;4981097;28;19914;-92
2022/11/05 03:09:03;;;;;;;;;;;;;;;;;;4996820;28;20013;-91
2022/11/05 03:11:29;;;;;;;;;;;;;;;;;;4963807;28;19949;-91
2022/11/05 03:13:54;;;;;;;;;;;;;;;;;;4964061;28;19980;-91
2022/11/05 03:16:19;;;;;;;;;;;;;;;;;;4996225;28;19964;-91
2022/11/05 03:18:46;;;;;;;;;;;;;;;;;;4996092;28;19922;-91
2022/11/05 03:21:12;;;;;;;;;;;;;;;;;;4964023;28;19922;-91
2022/11/05 03:23:37;;;;;;;;;;;;;;;;;;4963580;28;20397;-91
2022/11/05 03:26:03;;;;;;;;;;;;;;;;;;4979326;28;19921;-91
2022/11/05 03:28:30;;;;;;;;;;;;;;;;;;4963402;28;19949;-92
2022/11/05 03:30:56;;;;;;;;;;;;;;;;;;4978021;28;20259;-91
2022/11/05 03:33:21;;;;;;;;;;;;;;;;;;4979138;28;19944;-91
2022/11/05 03:35:47;;;;;;;;;;;;;;;;;;4962952;28;20000;-91
2022/11/05 03:38:12;;;;;;;;;;;;;;;;;;4977868;28;19971;-91
2022/11/05 03:40:38;;;;;;;;;;;;;;;;;;4978386;28;19914;-91
2022/11/05 03:43:03;;;;;;;;;;;;;;;;;;4961952;28;20001;-91
2022/11/05 03:45:29;;;;;;;;;;;;;;;;;;4977938;28;19997;-90
2022/11/05 03:47:54;;;;;;;;;;;;;;;;;;4977799;28;20024;-90
2022/11/05 03:50:20;;;;;;;;;;;;;;;;;;4961997;28;19913;-91
2022/11/05 03:52:45;;;;;;;;;;;;;;;;;;4961644;28;20013;-91
2022/11/05 03:55:11;;;;;;;;;;;;;;;;;;4978293;28;19937;-91
2022/11/05 03:57:36;;;;;;;;;;;;;;;;;;4977602;28;19936;-91
2022/11/05 04:00:02;;;;;;;;;;;;;;;;;;4961737;28;19972;-91
2022/11/05 04:02:37;;;;;;;;;;;;;;;;;;4993791;28;20150;-91
2022/11/05 04:05:02;;;;;;;;;;;;;;;;;;4977437;28;19918;-91
2022/11/05 04:18:25;;;;;;;;;;;;;;;;;;4994075;28;19914;-91
2022/11/05 04:26:22;;;;;;;;;;;;;;;;;;4986367;28;19914;-91
2022/11/05 04:31:32;;;;;;;;;;;;;;;;;;5011474;28;19956;-91
2022/11/05 04:33:58;;;;;;;;;;;;;;;;;;4979717;28;19910;-91
2022/11/05 04:36:23;;;;;;;;;;;;;;;;;;5009935;28;19914;-92
2022/11/05 04:38:48;;;;;;;;;;;;;;;;;;5008416;28;19921;-91
2022/11/05 04:41:14;;;;;;;;;;;;;;;;;;4987245;28;19920;-91
2022/11/05 04:43:39;;;;;;;;;;;;;;;;;;4982367;28;19957;-93
2022/11/05 04:46:05;;;;;;;;;;;;;;;;;;4996869;28;19937;-92
2022/11/05 04:48:30;;;;;;;;;;;;;;;;;;4995702;28;19960;-92
2022/11/05 04:50:56;;;;;;;;;;;;;;;;;;4993631;28;19977;-89
2022/11/05 04:53:21;;;;;;;;;;;;;;;;;;4993319;28;19987;-90
2022/11/05 04:55:47;;;;;;;;;;;;;;;;;;4993437;28;20009;-90
2022/11/05 04:58:13;;;;;;;;;;;;;;;;;;5010216;28;19953;-91
2022/11/05 05:00:39;;;;;;;;;;;;;;;;;;4995270;28;19917;-91
2022/11/05 05:03:04;;;;;;;;;;;;;;;;;;4995298;28;19910;-91
2022/11/05 05:05:30;;;;;;;;;;;;;;;;;;5013500;28;19914;-91
2022/11/05 05:07:55;;;;;;;;;;;;;;;;;;4996301;28;19914;-92
2022/11/05 05:10:21;;;;;;;;;;;;;;;;;;4979918;28;19913;-91
2022/11/05 05:12:47;;;;;;;;;;;;;;;;;;4997191;28;19914;-92
2022/11/05 05:15:12;;;;;;;;;;;;;;;;;;5003450;28;19914;-92
2022/11/05 05:17:38;;;;;;;;;;;;;;;;;;5005331;28;19946;-91
2022/11/05 05:22:48;;;;;;;;;;;;;;;;;;5000980;28;20407;-91
2022/11/05 05:25:13;;;;;;;;;;;;;;;;;;5002426;28;19918;-92
2022/11/05 05:27:39;;;;;;;;;;;;;;;;;;5000965;28;20348;-92
2022/11/05 05:30:04;;;;;;;;;;;;;;;;;;4984067;28;19914;-91
2022/11/05 05:32:30;;;;;;;;;;;;;;;;;;4997916;28;20004;-92
2022/11/05 05:34:56;;;;;;;;;;;;;;;;;;4985109;28;19922;-91
2022/11/05 05:37:21;;;;;;;;;;;;;;;;;;4984240;28;19910;-90
2022/11/05 05:39:47;;;;;;;;;;;;;;;;;;5003487;28;20020;-90
2022/11/05 05:42:12;;;;;;;;;;;;;;;;;;4984793;28;19961;-90
2022/11/05 05:44:38;;;;;;;;;;;;;;;;;;5002393;28;19921;-91
2022/11/05 05:47:03;;;;;;;;;;;;;;;;;;4986441;28;19914;-90
2022/11/05 05:49:28;;;;;;;;;;;;;;;;;;5014413;28;19937;-90
2022/11/05 05:52:00;;;;;;;;;;;;;;;;;;4997495;28;19922;-90
2022/11/05 05:54:25;;;;;;;;;;;;;;;;;;5005907;28;19914;-92
2022/11/05 05:56:51;;;;;;;;;;;;;;;;;;5003630;28;19914;-92
2022/11/05 05:59:16;;;;;;;;;;;;;;;;;;5004584;28;19909;-92
2022/11/05 06:01:42;;;;;;;;;;;;;;;;;;5006718;28;19919;-91
2022/11/05 06:04:07;;;;;;;;;;;;;;;;;;5006272;28;20301;-89
2022/11/05 06:06:33;;;;;;;;;;;;;;;;;;4988624;28;19914;-89
2022/11/05 06:08:58;;;;;;;;;;;;;;;;;;4986345;28;19963;-88
2022/11/05 06:11:24;;;;;;;;;;;;;;;;;;4985702;28;19917;-90
2022/11/05 06:13:49;;;;;;;;;;;;;;;;;;4984301;28;20397;-91
2022/11/05 06:16:15;;;;;;;;;;;;;;;;;;4967771;28;19968;-91
2022/11/05 06:18:40;;;;;;;;;;;;;;;;;;4999727;28;19914;-90
2022/11/05 06:21:06;;;;;;;;;;;;;;;;;;5000694;28;19957;-91
2022/11/05 06:23:31;;;;;;;;;;;;;;;;;;5002395;28;19925;-90
2022/11/05 06:25:57;;;;;;;;;;;;;;;;;;4985773;28;19914;-89
2022/11/05 06:28:22;;;;;;;;;;;;;;;;;;4986446;28;19921;-89
2022/11/05 06:30:48;;;;;;;;;;;;;;;;;;5001405;28;19914;-89
2022/11/05 06:33:13;;;;;;;;;;;;;;;;;;5002289;28;19920;-90
2022/11/05 06:35:39;;;;;;;;;;;;;;;;;;5003616;28;20365;-89
2022/11/05 06:38:04;;;;;;;;;;;;;;;;;;4983700;28;19925;-90
2022/11/05 06:40:30;;;;;;;;;;;;;;;;;;4983919;28;19914;-90
2022/11/05 06:42:55;;;;;;;;;;;;;;;;;;4999971;28;20064;-90
2022/11/05 06:45:21;;;;;;;;;;;;;;;;;;5002159;28;20047;-90
2022/11/05 06:47:46;;;;;;;;;;;;;;;;;;4986943;28;19910;-89
2022/11/05 06:50:11;;;;;;;;;;;;;;;;;;5002330;28;20325;-89
2022/11/05 06:52:37;;;;;;;;;;;;;;;;;;5001933;28;19933;-90
2022/11/05 06:55:02;;;;;;;;;;;;;;;;;;5003194;28;20424;-91
2022/11/05 06:57:28;;;;;;;;;;;;;;;;;;4986296;28;20004;-91
2022/11/05 06:59:53;;;;;;;;;;;;;;;;;;5002668;28;19925;-92
2022/11/05 07:02:19;;;;;;;;;;;;;;;;;;4969116;28;19925;-91
2022/11/05 07:04:44;;;;;;;;;;;;;;;;;;5000108;28;19922;-94
2022/11/05 07:07:10;;;;;;;;;;;;;;;;;;4996667;28;20304;-93
2022/11/05 07:09:41;;;;;;;;;;;;;;;;;;4980528;28;19997;-92
2022/11/05 07:12:07;;;;;;;;;;;;;;;;;;4980118;28;20001;-92
2022/11/05 07:14:35;;;;;;;;;;;;;;;;;;4996759;28;20012;-93
2022/11/05 07:17:03;;;;;;;;;;;;;;;;;;4999845;28;19914;-96
2022/11/05 07:19:35;;;;;;;;;;;;;;;;;;4995395;28;19914;-93
2022/11/05 07:22:00;;;;;;;;;;;;;;;;;;5003783;28;20369;-93
2022/11/05 07:24:26;;;;;;;;;;;;;;;;;;4965287;28;19914;-94
2022/11/05 07:26:52;;;;;;;;;;;;;;;;;;4999135;28;19975;-95
2022/11/05 07:29:18;;;;;;;;;;;;;;;;;;4984161;28;19905;-94
2022/11/05 07:31:45;;;;;;;;;;;;;;;;;;4996541;28;19917;-94
2022/11/05 07:34:11;;;;;;;;;;;;;;;;;;4981307;28;19916;-93
2022/11/05 07:36:38;;;;;;;;;;;;;;;;;;4965455;28;20009;-92
2022/11/05 07:39:03;;;;;;;;;;;;;;;;;;4982605;28;19925;-92
2022/11/05 07:41:30;;;;;;;;;;;;;;;;;;4973646;28;20013;-94
2022/11/05 07:43:56;;;;;;;;;;;;;;;;;;4981140;28;20019;-94
2022/11/05 07:46:21;;;;;;;;;;;;;;;;;;4985497;28;19977;-89
2022/11/05 07:48:58;;;;;;;;;;;;;;;;;;4989057;28;19985;-91
2022/11/05 07:51:26;;;;;;;;;;;;;;;;;;4979502;28;19914;-91
2022/11/05 07:53:51;;;;;;;;;;;;;;;;;;4980578;28;19910;-92
2022/11/05 07:56:17;;;;;;;;;;;;;;;;;;5006420;28;19921;-92
2022/11/05 07:58:51;;;;;;;;;;;;;;;;;;4990699;28;19913;-90
2022/11/05 08:01:29;;;;;;;;;;;;;;;;;;4993835;28;19914;-91
2022/11/05 08:03:55;;;;;;;;;;;;;;;;;;5011530;28;20023;-91
2022/11/05 08:06:20;;;;;;;;;;;;;;;;;;4980267;28;20374;-92
2022/11/05 08:08:45;;;;;;;;;;;;;;;;;;4995088;28;19920;-92
2022/11/05 08:11:11;;;;;;;;;;;;;;;;;;4971607;28;19914;-89
2022/11/05 08:13:37;;;;;;;;;;;;;;;;;;4994686;28;19914;-91
2022/11/05 08:16:09;;;;;;;;;;;;;;;;;;5029043;28;19914;-91
2022/11/05 08:18:36;;;;;;;;;;;;;;;;;;4974590;28;19949;-92
2022/11/05 08:21:05;;;;;;;;;;;;;;;;;;4964345;28;19914;-92
2022/11/05 08:23:30;;;;;;;;;;;;;;;;;;4977738;28;19988;-92
2022/11/05 08:25:55;;;;;;;;;;;;;;;;;;4988808;28;19933;-90
2022/11/05 08:28:21;;;;;;;;;;;;;;;;;;4994574;28;19922;-91
2022/11/05 08:30:46;;;;;;;;;;;;;;;;;;4978502;28;19926;-92
2022/11/05 08:33:12;;;;;;;;;;;;;;;;;;4998780;28;20000;-90
2022/11/05 08:35:38;;;;;;;;;;;;;;;;;;4977778;28;20336;-91
2022/11/05 08:38:03;;;;;;;;;;;;;;;;;;5010964;28;19926;-93
2022/11/05 08:40:29;;;;;;;;;;;;;;;;;;4962560;28;19918;-92
2022/11/05 08:42:55;;;;;;;;;;;;;;;;;;4964133;28;19935;-92
2022/11/05 08:45:20;;;;;;;;;;;;;;;;;;4965209;28;19918;-91
2022/11/05 08:47:46;;;;;;;;;;;;;;;;;;4965863;28;19917;-90
2022/11/05 08:50:11;;;;;;;;;;;;;;;;;;4997271;28;20372;-90
2022/11/05 08:52:36;;;;;;;;;;;;;;;;;;4967383;28;19920;-93
2022/11/05 08:55:02;;;;;;;;;;;;;;;;;;4980836;28;19914;-93
2022/11/05 08:57:28;;;;;;;;;;;;;;;;;;4994494;28;19920;-91
2022/11/05 08:59:53;;;;;;;;;;;;;;;;;;5015041;28;19960;-91
2022/11/05 09:02:19;;;;;;;;;;;;;;;;;;4947890;28;20261;-90
2022/11/05 09:04:44;;;;;;;;;;;;;;;;;;4968239;28;19921;-86
2022/11/05 09:07:10;;;;;;;;;;;;;;;;;;4975966;28;19921;-87
2022/11/05 09:09:35;;;;;;;;;;;;;;;;;;5004970;28;19918;-86
2022/11/05 09:12:03;;;;;;;;;;;;;;;;;;4962026;28;19976;-85
2022/11/05 09:14:30;;;;;;;;;;;;;;;;;;4973047;28;19960;-86
2022/11/05 09:16:55;;;;;;;;;;;;;;;;;;4976276;28;19914;-88
2022/11/05 09:19:21;;;;;;;;;;;;;;;;;;4976067;28;19914;-86
2022/11/05 09:21:46;;;;;;;;;;;;;;;;;;4975495;28;20341;-85
2022/11/05 09:24:11;;;;;;;;;;;;;;;;;;4991631;28;20436;-81
2022/11/05 09:26:37;;;;;;;;;;;;;;;;;;4999911;28;19914;-82
2022/11/05 09:29:02;;;;;;;;;;;;;;;;;;4991396;28;19913;-88
2022/11/05 09:31:30;;;;;;;;;;;;;;;;;;4991995;28;20378;-80
2022/11/05 09:33:56;;;;;;;;;;;;;;;;;;4969925;28;19973;-88
2022/11/05 09:36:23;;;;;;;;;;;;;;;;;;4965903;28;19914;-86
2022/11/05 09:38:48;;;;;;;;;;;;;;;;;;4960001;23;19915;-93
2022/11/05 09:41:14;;;;;;;;;;;;;;;;;;4942304;29;19915;-92
2022/11/05 09:43:39;;;;;;;;;;;;;;;;;;4951236;28;19991;-93
2022/11/05 09:46:05;;;;;;;;;;;;;;;;;;4946909;29;19954;-90
2022/11/05 09:48:33;;;;;;;;;;;;;;;;;;4948398;29;20351;-92
2022/11/05 09:50:58;;;;;;;;;;;;;;;;;;4952276;29;19930;-88
2022/11/05 09:53:26;;;;;;;;;;;;;;;;;;4950547;29;19915;-91
2022/11/05 09:55:52;;;;;;;;;;;;;;;;;;4955057;29;19903;-91
2022/11/05 09:58:18;;;;;;;;;;;;;;;;;;4956568;29;19914;-91
2022/11/05 10:00:51;;;;;;;;;;;;;;;;;;4956908;28;19915;-95
2022/11/05 10:03:16;;;;;;;;;;;;;;;;;;4957584;28;19918;-93
2022/11/05 10:05:44;;;;;;;;;;;;;;;;;;4938592;29;19935;-93
2022/11/05 10:08:10;;;;;;;;;;;;;;;;;;4941438;29;19919;-94
2022/11/05 10:10:35;;;;;;;;;;;;;;;;;;4941140;29;19918;-93
2022/11/05 10:13:04;;;;;;;;;;;;;;;;;;4940740;29;19927;-92
2022/11/05 10:15:32;;;;;;;;;;;;;;;;;;4957064;28;19942;-95
2022/11/05 10:18:01;;;;;;;;;;;;;;;;;;4926350;29;19975;-94
2022/11/05 10:20:27;;;;;;;;;;;;;;;;;;4939211;29;20012;-93
2022/11/05 10:22:57;;;;;;;;;;;;;;;;;;4942515;29;19915;-92
2022/11/05 10:25:23;;;;;;;;;;;;;;;;;;4935725;29;19970;-92
2022/11/05 10:27:49;;;;;;;;;;;;;;;;;;4935017;29;20385;-93
2022/11/05 10:30:14;;;;;;;;;;;;;;;;;;4934201;29;19914;-92
2022/11/05 10:32:45;;;;;;;;;;;;;;;;;;4928589;29;20007;-92
2022/11/05 10:35:11;;;;;;;;;;;;;;;;;;4926751;29;19950;-93
2022/11/05 10:37:36;;;;;;;;;;;;;;;;;;4953143;29;20211;-93
2022/11/05 10:40:06;;;;;;;;;;;;;;;;;;4940962;29;19961;-93
2022/11/05 10:42:34;;;;;;;;;;;;;;;;;;4972655;29;19913;-91
2022/11/05 10:45:00;;;;;;;;;;;;;;;;;;4980351;29;19914;-90
2022/11/05 10:47:25;;;;;;;;;;;;;;;;;;4980773;28;19910;-93
2022/11/05 10:49:51;;;;;;;;;;;;;;;;;;4947686;29;19925;-92
2022/11/05 10:52:16;;;;;;;;;;;;;;;;;;4979917;29;20021;-92
2022/11/05 10:54:42;;;;;;;;;;;;;;;;;;4944195;29;19974;-88
2022/11/05 10:57:07;;;;;;;;;;;;;;;;;;4947464;29;19915;-91
2022/11/05 10:59:33;;;;;;;;;;;;;;;;;;4957775;29;19919;-91
2022/11/05 11:02:01;;;;;;;;;;;;;;;;;;4956302;29;19977;-91
2022/11/05 11:04:29;;;;;;;;;;;;;;;;;;4941423;29;19994;-92
2022/11/05 11:06:57;;;;;;;;;;;;;;;;;;4956685;29;19919;-85
2022/11/05 11:09:22;;;;;;;;;;;;;;;;;;4957748;29;19910;-90
2022/11/05 11:11:48;;;;;;;;;;;;;;;;;;4955843;29;19902;-91
2022/11/05 11:14:13;;;;;;;;;;;;;;;;;;4955919;29;19915;-90
2022/11/05 11:16:39;;;;;;;;;;;;;;;;;;4932690;29;19911;-92
2022/11/05 11:19:06;;;;;;;;;;;;;;;;;;4926009;29;19915;-91
2022/11/05 11:21:36;;;;;;;;;;;;;;;;;;4940691;29;19903;-91
2022/11/05 11:24:02;;;;;;;;;;;;;;;;;;4973097;28;20047;-90
2022/11/05 11:26:27;;;;;;;;;;;;;;;;;;4943718;29;19918;-91
2022/11/05 11:28:52;;;;;;;;;;;;;;;;;;4961140;29;19918;-91
2022/11/05 11:31:18;;;;;;;;;;;;;;;;;;4960215;28;19929;-89
2022/11/05 11:33:43;;;;;;;;;;;;;;;;;;4944123;29;19906;-92
2022/11/05 11:36:09;;;;;;;;;;;;;;;;;;4960631;28;19919;-91
2022/11/05 11:38:35;;;;;;;;;;;;;;;;;;4960682;28;19935;-92
2022/11/05 11:41:00;;;;;;;;;;;;;;;;;;4968176;28;19903;-92
2022/11/05 11:43:26;;;;;;;;;;;;;;;;;;4960347;28;19957;-93
2022/11/05 11:45:51;;;;;;;;;;;;;;;;;;4928575;29;19923;-93
2022/11/05 11:48:16;;;;;;;;;;;;;;;;;;4957469;29;19930;-92
2022/11/05 11:50:48;;;;;;;;;;;;;;;;;;4940175;29;19903;-91
2022/11/05 11:53:13;;;;;;;;;;;;;;;;;;4923034;29;19919;-91
2022/11/05 11:55:38;;;;;;;;;;;;;;;;;;4960891;29;19939;-89
2022/11/05 11:58:04;;;;;;;;;;;;;;;;;;4948472;29;19915;-90
2022/11/05 12:00:29;;;;;;;;;;;;;;;;;;4947186;29;20190;-88
2022/11/05 12:02:55;;;;;;;;;;;;;;;;;;4942820;29;19922;-89
2022/11/05 12:05:23;;;;;;;;;;;;;;;;;;4948574;29;19946;-91
2022/11/05 12:07:48;;;;;;;;;;;;;;;;;;4932666;29;19915;-92
2022/11/05 12:10:13;;;;;;;;;;;;;;;;;;4952506;29;19969;-91
2022/11/05 12:12:42;;;;;;;;;;;;;;;;;;4954092;29;19903;-94
2022/11/05 12:15:10;;;;;;;;;;;;;;;;;;4956253;29;20006;-94
2022/11/05 12:17:36;;;;;;;;;;;;;;;;;;4954889;29;19915;-94
2022/11/05 12:20:01;;;;;;;;;;;;;;;;;;4955222;29;19915;-95
2022/11/05 12:22:26;;;;;;;;;;;;;;;;;;4923519;29;20449;-93
2022/11/05 12:24:52;;;;;;;;;;;;;;;;;;4923860;29;19922;-92
2022/11/05 12:27:17;;;;;;;;;;;;;;;;;;4925225;28;19923;-93
2022/11/05 12:29:42;;;;;;;;;;;;;;;;;;4943046;29;20195;-94
2022/11/05 12:32:08;;;;;;;;;;;;;;;;;;4934541;29;20282;-90
2022/11/05 12:34:33;;;;;;;;;;;;;;;;;;4934905;29;19932;-93
2022/11/05 12:36:59;;;;;;;;;;;;;;;;;;4932880;29;19921;-91
2022/11/05 12:39:24;;;;;;;;;;;;;;;;;;4928872;29;19918;-92
2022/11/05 12:41:50;;;;;;;;;;;;;;;;;;4929976;29;19949;-92
2022/11/05 12:44:15;;;;;;;;;;;;;;;;;;4919472;29;19925;-92
2022/11/05 12:46:41;;;;;;;;;;;;;;;;;;4930929;29;19914;-94
2022/11/05 12:49:06;;;;;;;;;;;;;;;;;;4963046;28;19911;-87
2022/11/05 12:51:31;;;;;;;;;;;;;;;;;;4956991;29;20001;-87
2022/11/05 12:53:57;;;;;;;;;;;;;;;;;;4958521;29;20374;-90
2022/11/05 12:56:22;;;;;;;;;;;;;;;;;;4960443;29;19938;-90
2022/11/05 12:58:47;;;;;;;;;;;;;;;;;;4958475;28;20275;-91
2022/11/05 13:01:13;;;;;;;;;;;;;;;;;;4951888;29;19973;-89
2022/11/05 13:03:38;;;;;;;;;;;;;;;;;;4953183;28;19926;-89
2022/11/05 13:06:04;;;;;;;;;;;;;;;;;;4964228;29;19902;-87
2022/11/05 13:08:29;;;;;;;;;;;;;;;;;;4957137;28;20472;-88
2022/11/05 13:10:54;;;;;;;;;;;;;;;;;;4957917;29;19914;-90
2022/11/05 13:13:20;;;;;;;;;;;;;;;;;;4941870;29;20314;-90
2022/11/05 13:15:45;;;;;;;;;;;;;;;;;;4958606;29;20270;-89
2022/11/05 13:18:11;;;;;;;;;;;;;;;;;;4957943;28;19915;-89
2022/11/05 13:20:36;;;;;;;;;;;;;;;;;;4949125;29;20449;-89
2022/11/05 13:23:02;;;;;;;;;;;;;;;;;;4948960;28;20009;-90
2022/11/05 13:25:27;;;;;;;;;;;;;;;;;;4954711;28;19930;-92
2022/11/05 13:27:53;;;;;;;;;;;;;;;;;;4956024;29;19945;-91
2022/11/05 13:30:20;;;;;;;;;;;;;;;;;;4909574;29;19922;-91
2022/11/05 13:32:46;;;;;;;;;;;;;;;;;;4951232;29;19997;-89
2022/11/05 13:35:11;;;;;;;;;;;;;;;;;;4947163;29;19977;-86
2022/11/05 13:40:23;;;;;;;;;;;;;;;;;;4949349;29;19941;-86
2022/11/05 13:42:49;;;;;;;;;;;;;;;;;;4942779;29;19910;-86
2022/11/05 13:45:14;;;;;;;;;;;;;;;;;;4944503;29;19958;-89
2022/11/05 13:47:39;;;;;;;;;;;;;;;;;;4946614;29;19915;-87
2022/11/05 13:50:05;;;;;;;;;;;;;;;;;;4950111;29;19914;-91
2022/11/05 13:52:30;;;;;;;;;;;;;;;;;;4950989;29;19922;-91
2022/11/05 13:54:56;;;;;;;;;;;;;;;;;;4941675;29;19911;-89
2022/11/05 13:57:21;;;;;;;;;;;;;;;;;;4924594;29;19915;-90
2022/11/05 13:59:50;;;;;;;;;;;;;;;;;;4916875;29;20041;-89
2022/11/05 14:02:16;;;;;;;;;;;;;;;;;;4917125;29;20251;-90
2022/11/05 14:04:41;;;;;;;;;;;;;;;;;;4949982;29;19979;-90
2022/11/05 14:07:06;;;;;;;;;;;;;;;;;;4953387;29;19917;-91
2022/11/05 14:09:33;;;;;;;;;;;;;;;;;;4953173;29;19915;-91
2022/11/05 14:11:59;;;;;;;;;;;;;;;;;;4951372;29;19957;-90
2022/11/05 14:14:24;;;;;;;;;;;;;;;;;;4937286;29;19949;-90
2022/11/05 14:16:49;;;;;;;;;;;;;;;;;;4969158;29;19914;-91
2022/11/05 14:19:15;;;;;;;;;;;;;;;;;;4934069;29;19914;-89
2022/11/05 14:21:40;;;;;;;;;;;;;;;;;;4959083;29;20001;-90
2022/11/05 14:24:06;;;;;;;;;;;;;;;;;;4972649;29;19918;-90
2022/11/05 14:26:32;;;;;;;;;;;;;;;;;;4956966;29;19926;-91
2022/11/05 14:28:57;;;;;;;;;;;;;;;;;;4943930;29;20396;-91
2022/11/05 14:31:22;;;;;;;;;;;;;;;;;;4937617;29;19954;-90
2022/11/05 14:33:48;;;;;;;;;;;;;;;;;;4961908;29;19914;-90
2022/11/05 14:36:13;;;;;;;;;;;;;;;;;;4946369;29;19987;-91
2022/11/05 14:38:39;;;;;;;;;;;;;;;;;;4973996;28;20271;-89
2022/11/05 14:41:05;;;;;;;;;;;;;;;;;;4930636;29;20267;-90
2022/11/05 14:43:31;;;;;;;;;;;;;;;;;;4930122;29;19995;-91
2022/11/05 14:45:56;;;;;;;;;;;;;;;;;;4952485;29;19926;-89
2022/11/05 14:48:21;;;;;;;;;;;;;;;;;;4920123;29;20259;-89
2022/11/05 14:50:48;;;;;;;;;;;;;;;;;;4910719;29;20001;-90
2022/11/05 14:53:13;;;;;;;;;;;;;;;;;;4942953;29;19915;-91
2022/11/05 14:55:38;;;;;;;;;;;;;;;;;;4921899;29;19946;-86
2022/11/05 14:58:04;;;;;;;;;;;;;;;;;;4954648;29;19981;-91
2022/11/05 15:00:39;;;;;;;;;;;;;;;;;;4948985;29;19918;-92
2022/11/05 15:03:04;;;;;;;;;;;;;;;;;;4949006;29;19948;-91
2022/11/05 15:05:30;;;;;;;;;;;;;;;;;;4952354;29;19918;-93
2022/11/05 15:07:55;;;;;;;;;;;;;;;;;;4932694;29;20430;-93
2022/11/05 15:10:21;;;;;;;;;;;;;;;;;;4917789;29;20546;-93
2022/11/05 15:12:46;;;;;;;;;;;;;;;;;;4919262;29;19915;-94
2022/11/05 15:15:12;;;;;;;;;;;;;;;;;;4952716;29;19974;-94
2022/11/05 15:17:37;;;;;;;;;;;;;;;;;;4940980;29;19943;-92
2022/11/05 15:20:02;;;;;;;;;;;;;;;;;;4939184;29;20302;-91
2022/11/05 15:22:28;;;;;;;;;;;;;;;;;;4893597;29;19914;-93
2022/11/05 15:24:53;;;;;;;;;;;;;;;;;;4908687;29;20280;-91
2022/11/05 15:27:19;;;;;;;;;;;;;;;;;;4908337;28;19914;-91
2022/11/05 15:29:44;;;;;;;;;;;;;;;;;;4926192;29;19983;-94
2022/11/05 15:32:09;;;;;;;;;;;;;;;;;;4926542;29;19915;-91
2022/11/05 15:34:35;;;;;;;;;;;;;;;;;;4958512;29;20445;-92
2022/11/05 15:37:00;;;;;;;;;;;;;;;;;;4946552;29;19925;-92
2022/11/05 15:39:26;;;;;;;;;;;;;;;;;;4982689;23;19948;-86
2022/11/05 15:41:51;;;;;;;;;;;;;;;;;;4959635;28;20264;-87
2022/11/05 15:44:17;;;;;;;;;;;;;;;;;;4943037;28;19937;-87
2022/11/05 15:46:42;;;;;;;;;;;;;;;;;;4944465;28;20388;-87
2022/11/05 15:49:08;;;;;;;;;;;;;;;;;;4976407;28;20008;-87
2022/11/05 15:51:34;;;;;;;;;;;;;;;;;;4961192;28;19921;-87
2022/11/05 15:54:00;;;;;;;;;;;;;;;;;;4959641;28;20452;-88
2022/11/05 15:56:27;;;;;;;;;;;;;;;;;;4975012;28;21607;-88
2022/11/05 15:58:55;;;;;;;;;;;;;;;;;;4969934;28;19938;-87
2022/11/05 16:01:20;;;;;;;;;;;;;;;;;;4977005;28;19918;-88
2022/11/05 16:03:46;;;;;;;;;;;;;;;;;;4961478;28;20412;-88
2022/11/05 16:06:12;;;;;;;;;;;;;;;;;;4977576;28;20457;-89
2022/11/05 16:08:40;;;;;;;;;;;;;;;;;;4979173;28;19933;-87
2022/11/05 16:11:05;;;;;;;;;;;;;;;;;;4977128;28;19910;-88
2022/11/05 16:13:31;;;;;;;;;;;;;;;;;;4976729;28;19921;-87
2022/11/05 16:15:57;;;;;;;;;;;;;;;;;;4944367;28;19920;-87
2022/11/05 16:18:22;;;;;;;;;;;;;;;;;;4978189;28;19926;-86
2022/11/05 16:20:48;;;;;;;;;;;;;;;;;;4976027;28;19914;-85
2022/11/05 16:23:15;;;;;;;;;;;;;;;;;;4975964;28;20020;-86
2022/11/05 16:25:40;;;;;;;;;;;;;;;;;;4961128;28;19929;-86
2022/11/05 16:28:06;;;;;;;;;;;;;;;;;;4965290;28;20354;-88
2022/11/05 16:30:31;;;;;;;;;;;;;;;;;;4981498;28;19925;-86
2022/11/05 16:32:57;;;;;;;;;;;;;;;;;;4971438;28;19914;-89
2022/11/05 16:35:22;;;;;;;;;;;;;;;;;;4956662;28;20008;-90
2022/11/05 16:37:47;;;;;;;;;;;;;;;;;;4980024;28;19914;-87
2022/11/05 16:40:13;;;;;;;;;;;;;;;;;;4960585;28;19924;-88
2022/11/05 16:42:38;;;;;;;;;;;;;;;;;;4980154;28;20320;-84
2022/11/05 16:45:04;;;;;;;;;;;;;;;;;;4971258;28;19914;-90
2022/11/05 16:47:32;;;;;;;;;;;;;;;;;;4974307;28;19921;-90
2022/11/05 16:49:58;;;;;;;;;;;;;;;;;;4956104;28;19914;-89
2022/11/05 16:52:23;;;;;;;;;;;;;;;;;;4963465;28;19921;-91
2022/11/05 16:54:48;;;;;;;;;;;;;;;;;;4962878;28;19948;-89
2022/11/05 16:57:14;;;;;;;;;;;;;;;;;;4988496;28;19914;-89
2022/11/05 16:59:39;;;;;;;;;;;;;;;;;;4994885;28;20281;-83
2022/11/05 17:02:04;;;;;;;;;;;;;;;;;;4996079;28;19937;-85
2022/11/05 17:04:30;;;;;;;;;;;;;;;;;;5004782;28;19972;-85
2022/11/05 17:06:55;;;;;;;;;;;;;;;;;;5003262;28;20465;-81
2022/11/05 17:09:20;;;;;;;;;;;;;;;;;;5002570;28;19925;-81
2022/11/05 17:11:46;;;;;;;;;;;;;;;;;;5000895;28;19936;-81
2022/11/05 17:14:11;;;;;;;;;;;;;;;;;;5001418;28;19918;-83
2022/11/05 17:16:37;;;;;;;;;;;;;;;;;;5004304;28;20429;-82
2022/11/05 17:19:02;;;;;;;;;;;;;;;;;;4992995;28;20429;-83
2022/11/05 17:21:27;;;;;;;;;;;;;;;;;;4957634;28;20424;-82
2022/11/05 17:23:53;;;;;;;;;;;;;;;;;;4958657;29;19922;-81